createdAt,value
2022-09-03T00:01:45.356Z,43.00
2022-09-03T00:04:37.192Z,42.80
2022-09-03T00:07:11.585Z,43.10
2022-09-03T00:09:49.401Z,43.20
2022-09-03T00:12:19.693Z,43.20
2022-09-03T00:14:50.360Z,43.20
2022-09-03T00:17:20.989Z,43.40
2022-09-03T00:19:55.655Z,43.20
2022-09-03T00:22:28.646Z,43.40
2022-09-03T00:25:00.385Z,43.60
2022-09-03T00:27:28.634Z,43.60
2022-09-03T00:30:04.227Z,43.60
2022-09-03T00:32:41.243Z,43.60
2022-09-03T00:35:16.921Z,43.70
2022-09-03T00:37:44.271Z,43.70
2022-09-03T00:40:33.699Z,43.80
2022-09-03T00:43:22.252Z,43.90
2022-09-03T00:46:07.042Z,43.90
2022-09-03T00:48:54.712Z,44.00
2022-09-03T00:51:44.311Z,44.10
2022-09-03T00:54:35.731Z,44.10
2022-09-03T00:57:25.576Z,44.20
2022-09-03T01:00:21.466Z,44.50
2022-09-03T01:03:09.830Z,44.30
2022-09-03T01:05:44.915Z,44.40
2022-09-03T01:08:33.245Z,45.50
2022-09-03T01:11:10.492Z,44.50
2022-09-03T01:13:40.848Z,44.60
2022-09-03T01:16:25.823Z,44.70
2022-09-03T01:19:41.490Z,45.00
2022-09-03T01:22:42.850Z,44.80
2022-09-03T01:25:43.841Z,44.90
2022-09-03T01:28:42.286Z,44.90
2022-09-03T01:31:21.267Z,45.00
2022-09-03T01:34:01.848Z,44.90
2022-09-03T01:36:49.571Z,45.00
2022-09-03T01:39:56.530Z,45.00
2022-09-03T01:42:42.005Z,45.10
2022-09-03T01:45:21.550Z,45.00
2022-09-03T01:47:50.062Z,45.00
2022-09-03T01:50:39.407Z,45.10
2022-09-03T01:53:25.538Z,45.10
2022-09-03T01:56:11.101Z,45.00
2022-09-03T01:58:48.162Z,45.00
2022-09-03T02:01:24.971Z,45.00
2022-09-03T02:03:52.076Z,45.20
2022-09-03T02:06:20.853Z,45.10
2022-09-03T02:08:47.587Z,45.20
2022-09-03T02:11:14.447Z,45.20
2022-09-03T02:13:54.960Z,45.30
2022-09-03T02:16:28.389Z,45.40
2022-09-03T02:19:01.181Z,45.50
2022-09-03T02:21:34.480Z,45.40
2022-09-03T02:24:02.962Z,45.40
2022-09-03T02:26:29.614Z,45.60
2022-09-03T02:28:57.608Z,45.70
2022-09-03T02:31:24.563Z,45.60
2022-09-03T02:33:51.533Z,45.60
2022-09-03T02:36:21.476Z,45.60
2022-09-03T02:38:49.087Z,45.70
2022-09-03T02:41:15.783Z,45.70
2022-09-03T02:43:51.029Z,45.80
2022-09-03T02:46:21.795Z,45.80
2022-09-03T02:48:49.041Z,45.80
2022-09-03T02:51:16.139Z,45.90
2022-09-03T02:53:43.648Z,46.10
2022-09-03T02:56:10.957Z,46.00
2022-09-03T02:58:37.924Z,46.20
2022-09-03T03:01:05.538Z,46.10
2022-09-03T03:03:32.859Z,46.20
2022-09-03T03:06:02.773Z,47.20
2022-09-03T03:08:30.352Z,46.20
2022-09-03T03:10:58.698Z,46.20
2022-09-03T03:13:29.731Z,46.20
2022-09-03T03:15:58.700Z,46.30
2022-09-03T03:18:25.578Z,46.50
2022-09-03T03:20:52.518Z,46.50
2022-09-03T03:23:19.427Z,46.60
2022-09-03T03:25:47.728Z,46.50
2022-09-03T03:28:15.232Z,46.50
2022-09-03T03:30:43.062Z,46.50
2022-09-03T03:33:10.430Z,46.50
2022-09-03T03:35:37.237Z,46.50
2022-09-03T03:38:05.060Z,46.60
2022-09-03T03:40:31.924Z,46.60
2022-09-03T03:42:59.149Z,46.50
2022-09-03T03:45:26.149Z,46.60
2022-09-03T03:47:56.807Z,46.70
2022-09-03T03:50:23.886Z,46.60
2022-09-03T03:52:50.926Z,46.60
2022-09-03T03:55:17.604Z,46.50
2022-09-03T03:57:44.334Z,46.60
2022-09-03T04:00:11.482Z,46.50
2022-09-03T04:02:39.315Z,46.60
2022-09-03T04:05:06.466Z,46.70
2022-09-03T04:07:34.329Z,46.70
2022-09-03T04:10:01.160Z,46.80
2022-09-03T04:12:27.952Z,46.70
2022-09-03T04:14:54.609Z,46.90
2022-09-03T04:17:25.114Z,46.90
2022-09-03T04:19:52.257Z,46.80
2022-09-03T04:22:20.623Z,46.80
2022-09-03T04:24:47.322Z,46.90
2022-09-03T04:27:13.966Z,47.00
2022-09-03T04:29:40.636Z,47.00
2022-09-03T04:32:25.827Z,47.10
2022-09-03T04:34:52.500Z,47.00
2022-09-03T04:37:20.288Z,47.20
2022-09-03T04:39:47.226Z,47.20
2022-09-03T04:42:14.062Z,47.30
2022-09-03T04:44:41.230Z,47.40
2022-09-03T04:47:08.227Z,47.40
2022-09-03T04:49:34.937Z,47.40
2022-09-03T04:52:02.913Z,47.60
2022-09-03T04:54:29.913Z,47.50
2022-09-03T04:56:57.234Z,47.50
2022-09-03T04:59:24.232Z,47.70
2022-09-03T05:01:52.745Z,47.70
2022-09-03T05:04:19.876Z,47.60
2022-09-03T05:06:46.637Z,47.70
2022-09-03T05:09:13.353Z,47.80
2022-09-03T05:11:40.035Z,47.80
2022-09-03T05:14:07.243Z,47.90
2022-09-03T05:16:34.054Z,47.90
2022-09-03T05:19:01.401Z,48.00
2022-09-03T05:21:29.910Z,48.00
2022-09-03T05:23:57.034Z,48.10
2022-09-03T05:26:29.101Z,48.00
2022-09-03T05:28:58.962Z,48.10
2022-09-03T05:31:28.346Z,48.10
2022-09-03T05:34:00.450Z,48.30
2022-09-03T05:36:34.685Z,48.40
2022-09-03T05:39:01.696Z,48.50
2022-09-03T05:41:28.980Z,48.40
2022-09-03T05:43:59.143Z,48.50
2022-09-03T05:46:32.032Z,48.40
2022-09-03T05:49:03.873Z,49.60
2022-09-03T05:51:31.264Z,48.60
2022-09-03T05:53:58.527Z,48.60
2022-09-03T05:56:27.805Z,48.60
2022-09-03T05:58:57.609Z,48.70
2022-09-03T06:01:26.680Z,48.70
2022-09-03T06:04:01.424Z,48.80
2022-09-03T06:06:31.575Z,48.90
2022-09-03T06:09:00.725Z,48.90
2022-09-03T06:11:31.032Z,49.00
2022-09-03T06:14:00.189Z,49.00
2022-09-03T06:16:30.769Z,49.30
2022-09-03T06:19:01.914Z,49.00
2022-09-03T06:21:29.433Z,49.00
2022-09-03T06:23:59.384Z,49.10
2022-09-03T06:26:28.602Z,50.30
2022-09-03T06:28:56.994Z,49.20
2022-09-03T06:31:24.515Z,49.30
2022-09-03T06:33:53.016Z,49.30
2022-09-03T06:36:21.006Z,49.30
2022-09-03T06:38:48.351Z,49.30
2022-09-03T06:41:25.198Z,49.40
2022-09-03T06:44:03.038Z,49.30
2022-09-03T06:46:31.500Z,49.30
2022-09-03T06:48:58.240Z,49.30
2022-09-03T06:51:27.240Z,49.30
2022-09-03T06:54:09.248Z,49.40
2022-09-03T06:56:40.313Z,49.30
2022-09-03T06:59:10.730Z,49.30
2022-09-03T07:01:40.809Z,49.50
2022-09-03T07:04:12.862Z,49.40
2022-09-03T07:06:40.833Z,49.30
2022-09-03T07:09:08.194Z,49.10
2022-09-03T07:11:36.013Z,49.20
2022-09-03T07:14:04.698Z,49.10
2022-09-03T07:16:36.738Z,49.00
2022-09-03T07:19:04.707Z,49.00
2022-09-03T07:21:44.062Z,49.00
2022-09-03T07:24:15.197Z,48.90
2022-09-03T07:26:47.091Z,48.80
2022-09-03T07:29:15.764Z,48.60
2022-09-03T07:31:43.702Z,48.40
2022-09-03T07:34:12.613Z,48.00
2022-09-03T07:36:42.900Z,47.80
2022-09-03T07:39:11.586Z,47.50
2022-09-03T07:41:39.087Z,47.10
2022-09-03T07:44:05.904Z,46.90
2022-09-03T07:46:35.232Z,46.80
2022-09-03T07:49:05.308Z,46.50
2022-09-03T07:51:37.122Z,46.30
2022-09-03T07:54:07.665Z,46.10
2022-09-03T07:56:35.865Z,45.70
2022-09-03T07:59:03.376Z,45.40
2022-09-03T08:01:32.745Z,45.20
2022-09-03T08:04:00.066Z,45.00
2022-09-03T08:06:29.388Z,44.90
2022-09-03T08:09:05.060Z,45.00
2022-09-03T08:11:43.640Z,45.60
2022-09-03T08:14:12.505Z,44.40
2022-09-03T08:16:42.245Z,44.40
2022-09-03T08:19:09.204Z,44.50
2022-09-03T08:21:36.210Z,44.50
2022-09-03T08:24:03.568Z,44.30
2022-09-03T08:26:32.877Z,44.80
2022-09-03T08:29:00.163Z,43.50
2022-09-03T08:31:28.247Z,43.70
2022-09-03T08:33:56.736Z,43.60
2022-09-03T08:36:30.043Z,43.70
2022-09-03T08:38:58.575Z,43.70
2022-09-03T08:41:53.053Z,43.60
2022-09-03T08:44:37.811Z,43.20
2022-09-03T08:47:17.100Z,43.30
2022-09-03T08:49:59.119Z,43.20
2022-09-03T08:53:02.001Z,43.30
2022-09-03T08:55:36.256Z,43.30
2022-09-03T08:58:16.249Z,43.10
2022-09-03T09:01:04.168Z,42.90
2022-09-03T09:03:36.536Z,43.00
2022-09-03T09:06:32.137Z,42.90
2022-09-03T09:08:58.779Z,42.90
2022-09-03T09:11:40.282Z,42.90
2022-09-03T09:14:15.814Z,42.70
2022-09-03T09:16:45.221Z,42.50
2022-09-03T09:19:53.098Z,42.40
2022-09-03T09:22:41.254Z,41.90
2022-09-03T09:25:19.288Z,42.00
2022-09-03T09:27:56.868Z,41.50
2022-09-03T09:30:23.617Z,41.50
2022-09-03T09:32:50.935Z,41.60
2022-09-03T09:35:18.897Z,41.00
2022-09-03T09:37:54.039Z,40.80
2022-09-03T09:40:33.809Z,40.50
2022-09-03T09:43:05.406Z,40.40
2022-09-03T09:45:35.235Z,40.50
2022-09-03T09:48:07.064Z,40.70
2022-09-03T09:50:33.821Z,40.40
2022-09-03T09:53:04.190Z,40.30
2022-09-03T09:55:32.385Z,40.10
2022-09-03T09:58:14.041Z,39.80
2022-09-03T10:00:42.733Z,39.70
2022-09-03T10:03:13.754Z,39.60
2022-09-03T10:05:40.913Z,39.50
2022-09-03T10:08:19.581Z,39.30
2022-09-03T10:10:49.823Z,38.60
2022-09-03T10:13:34.816Z,38.60
2022-09-03T10:16:08.683Z,38.40
2022-09-03T10:18:51.824Z,38.50
2022-09-03T10:21:27.213Z,38.50
2022-09-03T10:24:07.151Z,38.10
2022-09-03T10:26:36.928Z,37.90
2022-09-03T10:29:07.535Z,37.80
2022-09-03T10:31:39.847Z,37.70
2022-09-03T10:34:24.651Z,37.30
2022-09-03T10:37:29.761Z,38.00
2022-09-03T10:40:15.660Z,37.10
2022-09-03T10:43:00.108Z,36.80
2022-09-03T10:45:42.103Z,36.80
2022-09-03T10:48:43.101Z,36.50
2022-09-03T10:51:34.999Z,36.30
2022-09-03T10:54:28.968Z,36.50
2022-09-03T10:56:58.363Z,36.20
2022-09-03T10:59:39.901Z,36.50
2022-09-03T11:02:21.269Z,36.30
2022-09-03T11:04:54.376Z,36.30
2022-09-03T11:07:26.758Z,36.10
2022-09-03T11:10:06.076Z,36.10
2022-09-03T11:12:44.880Z,36.20
2022-09-03T11:15:36.171Z,36.40
2022-09-03T11:18:24.601Z,36.30
2022-09-03T11:20:54.792Z,35.90
2022-09-03T11:23:24.451Z,36.10
2022-09-03T11:25:54.155Z,36.20
2022-09-03T11:28:42.126Z,36.20
2022-09-03T11:32:00.029Z,36.10
2022-09-03T11:34:32.329Z,35.50
2022-09-03T11:37:18.530Z,35.70
2022-09-03T11:39:53.000Z,35.40
2022-09-03T11:42:35.363Z,35.50
2022-09-03T11:45:20.223Z,35.40
2022-09-03T11:47:47.190Z,35.10
2022-09-03T11:50:24.914Z,35.00
2022-09-03T11:52:54.340Z,34.90
2022-09-03T11:55:38.265Z,34.90
2022-09-03T11:58:24.150Z,34.80
2022-09-03T12:00:53.264Z,34.90
2022-09-03T12:03:28.523Z,34.90
2022-09-03T12:06:03.799Z,34.80
2022-09-03T12:09:08.124Z,34.80
2022-09-03T12:11:51.857Z,34.10
2022-09-03T12:15:06.308Z,34.40
2022-09-03T12:18:13.915Z,34.40
2022-09-03T12:20:42.048Z,34.70
2022-09-03T12:23:11.840Z,34.50
2022-09-03T12:25:47.451Z,34.10
2022-09-03T12:28:21.652Z,34.10
2022-09-03T12:30:48.381Z,34.20
2022-09-03T12:33:18.354Z,34.10
2022-09-03T12:35:58.929Z,33.90
2022-09-03T12:38:40.582Z,33.70
2022-09-03T12:41:26.813Z,33.80
2022-09-03T12:43:57.065Z,33.40
2022-09-03T12:46:34.544Z,33.40
2022-09-03T12:52:06.086Z,33.50
2022-09-03T12:54:39.557Z,33.70
2022-09-03T12:57:06.360Z,33.40
2022-09-03T12:59:37.220Z,33.30
2022-09-03T13:02:17.901Z,33.10
2022-09-03T13:04:46.183Z,32.70
2022-09-03T13:07:27.200Z,33.30
2022-09-03T13:10:03.787Z,32.80
2022-09-03T13:12:43.125Z,32.80
2022-09-03T13:15:19.702Z,32.70
2022-09-03T13:17:57.551Z,32.70
2022-09-03T13:20:45.539Z,32.40
2022-09-03T13:23:15.661Z,32.40
2022-09-03T13:26:16.166Z,32.60
2022-09-03T13:28:55.491Z,32.80
2022-09-03T13:31:47.987Z,32.90
2022-09-03T13:34:33.638Z,32.70
2022-09-03T13:37:25.811Z,32.10
2022-09-03T13:39:58.031Z,32.20
2022-09-03T13:42:40.745Z,32.20
2022-09-03T13:45:37.265Z,32.20
2022-09-03T13:48:55.473Z,33.00
2022-09-03T13:51:30.232Z,31.10
2022-09-03T13:54:11.909Z,31.60
2022-09-03T13:56:49.162Z,31.40
2022-09-03T13:59:28.949Z,31.30
2022-09-03T14:02:19.539Z,30.10
2022-09-03T14:05:06.619Z,30.10
2022-09-03T14:07:56.909Z,29.40
2022-09-03T14:10:52.697Z,29.40
2022-09-03T14:13:25.111Z,29.30
2022-09-03T14:16:04.872Z,29.60
2022-09-03T14:18:58.414Z,29.00
2022-09-03T14:21:56.472Z,28.00
2022-09-03T14:24:47.546Z,27.80
2022-09-03T14:27:25.107Z,28.00
2022-09-03T14:29:58.705Z,27.50
2022-09-03T14:32:57.846Z,27.60
2022-09-03T14:35:44.800Z,27.00
2022-09-03T14:38:26.358Z,26.80
2022-09-03T14:41:14.326Z,26.90
2022-09-03T14:44:20.793Z,26.60
2022-09-03T14:46:56.784Z,26.90
2022-09-03T14:49:35.519Z,27.00
2022-09-03T14:52:17.238Z,27.30
2022-09-03T14:55:02.445Z,27.40
2022-09-03T14:57:47.828Z,27.20
2022-09-03T15:00:41.424Z,27.00
2022-09-03T15:03:16.858Z,26.70
2022-09-03T15:06:03.526Z,27.30
2022-09-03T15:08:32.937Z,27.50
2022-09-03T15:11:03.830Z,27.50
2022-09-03T15:13:37.466Z,27.70
2022-09-03T15:16:22.717Z,28.00
2022-09-03T15:19:10.012Z,28.20
2022-09-03T15:21:42.828Z,27.80
2022-09-03T15:24:40.272Z,28.10
2022-09-03T15:27:20.691Z,28.30
2022-09-03T15:30:14.580Z,28.60
2022-09-03T15:32:53.149Z,28.80
2022-09-03T15:35:52.177Z,28.90
2022-09-03T15:38:21.713Z,29.00
2022-09-03T15:40:48.340Z,29.10
2022-09-03T15:43:30.745Z,29.40
2022-09-03T15:46:02.987Z,29.30
2022-09-03T15:48:48.797Z,29.50
2022-09-03T15:51:23.234Z,29.60
2022-09-03T15:54:16.045Z,29.60
2022-09-03T15:56:49.306Z,29.10
2022-09-03T15:59:23.649Z,29.20
2022-09-03T16:02:10.984Z,29.10
2022-09-03T16:05:06.319Z,29.30
2022-09-03T16:07:38.714Z,29.00
2022-09-03T16:10:25.377Z,29.20
2022-09-03T16:13:30.037Z,29.10
2022-09-03T16:16:10.423Z,29.10
2022-09-03T16:19:01.181Z,28.80
2022-09-03T16:21:45.900Z,28.60
2022-09-03T16:24:48.900Z,28.90
2022-09-03T16:27:50.695Z,28.90
2022-09-03T16:30:44.735Z,29.00
2022-09-03T16:33:24.862Z,29.30
2022-09-03T16:36:16.688Z,29.40
2022-09-03T16:39:03.349Z,29.60
2022-09-03T16:41:43.282Z,29.60
2022-09-03T16:44:21.825Z,29.20
2022-09-03T16:47:07.789Z,29.40
2022-09-03T16:50:05.401Z,29.40
2022-09-03T16:52:56.804Z,28.90
2022-09-03T16:55:30.495Z,29.30
2022-09-03T16:58:10.586Z,29.70
2022-09-03T17:01:03.820Z,29.60
2022-09-03T17:03:52.416Z,29.50
2022-09-03T17:06:29.808Z,29.70
2022-09-03T17:09:15.119Z,29.90
2022-09-03T17:12:18.879Z,29.70
2022-09-03T17:15:03.701Z,29.50
2022-09-03T17:17:49.365Z,29.50
2022-09-03T17:20:35.544Z,29.70
2022-09-03T17:23:47.872Z,29.60
2022-09-03T17:26:29.890Z,30.60
2022-09-03T17:29:28.028Z,30.20
2022-09-03T17:32:21.170Z,30.70
2022-09-03T17:35:02.591Z,31.30
2022-09-03T17:37:56.556Z,31.50
2022-09-03T17:40:36.075Z,31.90
2022-09-03T17:43:09.002Z,32.50
2022-09-03T17:46:13.338Z,32.80
2022-09-03T17:48:51.728Z,33.30
2022-09-03T17:51:36.920Z,33.70
2022-09-03T17:54:39.366Z,34.00
2022-09-03T17:57:14.622Z,34.00
2022-09-03T17:59:57.681Z,34.30
2022-09-03T18:02:31.119Z,34.50
2022-09-03T18:05:01.557Z,34.80
2022-09-03T18:07:44.710Z,35.30
2022-09-03T18:10:32.032Z,35.40
2022-09-03T18:13:23.605Z,35.90
2022-09-03T18:16:14.175Z,36.30
2022-09-03T18:18:52.571Z,36.70
2022-09-03T18:21:43.976Z,37.10
2022-09-03T18:24:58.590Z,37.10
2022-09-03T18:27:57.836Z,37.10
2022-09-03T18:30:44.445Z,37.40
2022-09-03T18:33:36.528Z,37.40
2022-09-03T18:36:23.401Z,37.60
2022-09-03T18:39:08.825Z,38.00
2022-09-03T18:42:22.731Z,37.90
2022-09-03T18:45:21.902Z,38.30
2022-09-03T18:48:30.058Z,39.10
2022-09-03T18:51:48.399Z,39.00
2022-09-03T18:55:06.870Z,39.60
2022-09-03T18:58:16.874Z,39.70
2022-09-03T19:01:20.347Z,39.70
2022-09-03T19:04:49.046Z,39.90
2022-09-03T19:08:03.700Z,40.10
2022-09-03T19:11:16.590Z,41.30
2022-09-03T19:14:02.121Z,40.60
2022-09-03T19:17:07.446Z,40.80
2022-09-03T19:20:15.254Z,41.00
2022-09-03T19:23:01.053Z,41.50
2022-09-03T19:25:48.344Z,41.80
2022-09-03T19:28:44.868Z,42.00
2022-09-03T19:32:05.243Z,42.40
2022-09-03T19:35:17.822Z,42.60
2022-09-03T19:38:18.793Z,42.80
2022-09-03T19:41:25.802Z,43.20
2022-09-03T19:44:32.592Z,43.20
2022-09-03T19:47:21.081Z,43.30
2022-09-03T19:50:39.970Z,43.30
2022-09-03T19:53:37.304Z,43.70
2022-09-03T19:56:29.474Z,43.80
2022-09-03T19:59:20.082Z,44.20
2022-09-03T20:02:07.362Z,44.50
2022-09-03T20:05:02.912Z,44.60
2022-09-03T20:07:48.390Z,44.80
2022-09-03T20:10:23.612Z,44.90
2022-09-03T20:13:13.470Z,45.10
2022-09-03T20:15:57.761Z,45.50
2022-09-03T20:18:49.522Z,45.70
2022-09-03T20:21:27.493Z,46.00
2022-09-03T20:24:00.103Z,45.90
2022-09-03T20:26:43.729Z,46.00
2022-09-03T20:29:22.316Z,46.20
2022-09-03T20:32:04.410Z,46.50
2022-09-03T20:34:54.688Z,46.60
2022-09-03T20:37:24.810Z,46.80
2022-09-03T20:40:04.941Z,47.00
2022-09-03T20:42:57.478Z,47.50
2022-09-03T20:45:49.741Z,47.40
2022-09-03T20:48:28.265Z,47.60
2022-09-03T20:51:06.164Z,47.60
2022-09-03T20:54:03.557Z,47.70
2022-09-03T20:56:36.332Z,48.00
2022-09-03T20:59:12.385Z,47.90
2022-09-03T21:01:48.144Z,47.90
2022-09-03T21:04:22.546Z,48.30
2022-09-03T21:07:10.413Z,48.50
2022-09-03T21:09:58.999Z,48.60
2022-09-03T21:12:51.500Z,48.90
2022-09-03T21:15:40.324Z,49.30
2022-09-03T21:18:23.196Z,49.30
2022-09-03T21:20:59.845Z,49.20
2022-09-03T21:23:32.506Z,49.50
2022-09-03T21:26:14.635Z,49.40
2022-09-03T21:28:45.711Z,49.60
2022-09-03T21:31:24.064Z,49.70
2022-09-03T21:33:55.732Z,50.00
2022-09-03T21:36:35.889Z,50.10
2022-09-03T21:39:19.792Z,50.00
2022-09-03T21:42:00.174Z,50.20
2022-09-03T21:44:45.105Z,50.40
2022-09-03T21:47:18.606Z,50.30
2022-09-03T21:50:01.155Z,50.30
2022-09-03T21:52:53.299Z,50.90
2022-09-03T21:55:39.266Z,50.90
2022-09-03T21:58:15.649Z,51.10
2022-09-03T22:00:43.679Z,51.30
2022-09-03T22:03:10.496Z,51.00
2022-09-03T22:05:55.325Z,51.10
2022-09-03T22:08:53.783Z,51.20
2022-09-03T22:11:35.553Z,51.30
2022-09-03T22:14:17.327Z,51.60
2022-09-03T22:17:05.479Z,51.70
2022-09-03T22:19:37.602Z,51.90
2022-09-03T22:22:18.682Z,51.80
2022-09-03T22:24:52.837Z,51.80
2022-09-03T22:27:25.202Z,52.20
2022-09-03T22:30:12.064Z,52.30
2022-09-03T22:32:47.642Z,52.60
2022-09-03T22:35:22.152Z,52.80
2022-09-03T22:38:10.059Z,52.80
2022-09-03T22:40:49.127Z,52.90
2022-09-03T22:43:39.509Z,53.00
2022-09-03T22:46:13.597Z,52.80
2022-09-03T22:49:02.122Z,53.00
2022-09-03T22:51:36.026Z,53.10
2022-09-03T22:54:22.940Z,53.30
2022-09-03T22:56:51.510Z,53.70
2022-09-03T22:59:26.280Z,53.60
2022-09-03T23:02:02.884Z,53.70
2022-09-03T23:04:58.170Z,53.60
2022-09-03T23:07:39.178Z,54.10
2022-09-03T23:10:11.488Z,54.20
2022-09-03T23:12:52.076Z,54.30
2022-09-03T23:15:23.112Z,54.40
2022-09-03T23:18:00.365Z,54.50
2022-09-03T23:20:29.130Z,54.60
2022-09-03T23:23:10.103Z,54.50
2022-09-03T23:25:42.073Z,54.80
2022-09-03T23:28:11.202Z,54.50
2022-09-03T23:30:38.148Z,54.60
2022-09-03T23:33:05.247Z,54.80
2022-09-03T23:35:45.045Z,54.90
2022-09-03T23:38:29.588Z,55.10
2022-09-03T23:41:04.580Z,55.20
2022-09-03T23:43:55.699Z,55.40
2022-09-03T23:47:04.330Z,55.40
2022-09-03T23:50:01.218Z,55.60
2022-09-03T23:52:56.833Z,55.70
2022-09-03T23:55:31.903Z,55.60
2022-09-03T23:58:18.065Z,56.00
